createdAt,value
2017-09-06T00:02:09.059Z,101140.78
2017-09-06T00:04:37.765Z,101138.02
2017-09-06T00:07:06.263Z,101140.06
2017-09-06T00:09:34.650Z,101138.97
2017-09-06T00:12:03.054Z,101134.16
2017-09-06T00:14:31.574Z,101133.59
2017-09-06T00:16:59.983Z,101119.56
2017-09-06T00:19:28.390Z,101130.85
2017-09-06T00:21:56.842Z,101133.16
2017-09-06T00:24:25.274Z,101129.84
2017-09-06T00:26:53.990Z,101121.95
2017-09-06T00:29:22.483Z,101120.59
2017-09-06T00:31:50.899Z,101112.13
2017-09-06T00:34:19.326Z,101117.20
2017-09-06T00:36:47.742Z,101112.63
2017-09-06T00:39:16.150Z,101114.20
2017-09-06T00:41:44.678Z,101113.31
2017-09-06T00:44:13.107Z,101109.97
2017-09-06T00:46:41.524Z,101108.23
2017-09-06T00:49:09.979Z,101107.72
2017-09-06T00:51:38.530Z,101101.64
2017-09-06T00:54:07.031Z,101100.93
2017-09-06T00:56:35.503Z,101097.19
2017-09-06T00:59:03.972Z,101097.97
2017-09-06T01:01:32.373Z,101092.86
2017-09-06T01:04:00.838Z,101100.72
2017-09-06T01:06:29.304Z,101091.13
2017-09-06T01:08:57.756Z,101090.48
2017-09-06T01:11:26.181Z,101090.52
2017-09-06T01:13:54.642Z,101092.88
2017-09-06T01:16:23.115Z,101091.29
2017-09-06T01:18:51.578Z,101086.27
2017-09-06T01:21:20.018Z,101087.72
2017-09-06T01:23:48.496Z,101083.16
2017-09-06T01:26:16.897Z,101072.60
2017-09-06T01:28:45.398Z,101080.66
2017-09-06T01:31:13.934Z,101075.86
2017-09-06T01:33:42.345Z,101080.00
2017-09-06T01:36:10.814Z,101076.98
2017-09-06T01:38:39.399Z,101073.66
2017-09-06T01:41:08.004Z,101068.20
2017-09-06T01:43:36.720Z,101070.30
2017-09-06T01:46:05.252Z,101066.35
2017-09-06T01:48:33.658Z,101062.23
2017-09-06T01:51:02.084Z,101064.16
2017-09-06T01:53:30.505Z,101059.19
2017-09-06T01:55:58.923Z,101060.48
2017-09-06T01:58:27.330Z,101055.95
2017-09-06T02:00:55.922Z,101047.03
2017-09-06T02:03:24.314Z,101048.41
2017-09-06T02:05:52.828Z,101041.19
2017-09-06T02:08:21.260Z,101039.20
2017-09-06T02:10:50.555Z,101035.43
2017-09-06T02:13:19.011Z,101040.20
2017-09-06T02:15:47.413Z,101029.66
2017-09-06T02:18:15.839Z,101038.27
2017-09-06T02:20:44.248Z,101028.85
2017-09-06T02:23:12.649Z,101035.70
2017-09-06T02:25:41.064Z,101030.73
2017-09-06T02:28:09.468Z,101029.61
2017-09-06T02:30:37.870Z,101036.56
2017-09-06T02:33:06.394Z,101026.81
2017-09-06T02:35:34.853Z,101024.75
2017-09-06T02:38:03.297Z,101019.20
2017-09-06T02:40:31.713Z,101015.05
2017-09-06T02:43:00.121Z,101009.12
2017-09-06T02:45:28.552Z,101010.98
2017-09-06T02:47:56.977Z,101005.98
2017-09-06T02:50:25.399Z,101004.16
2017-09-06T02:52:53.827Z,101010.44
2017-09-06T02:55:22.214Z,101006.44
2017-09-06T02:57:50.630Z,100995.91
2017-09-06T03:00:19.283Z,100993.50
2017-09-06T03:02:47.705Z,100999.06
2017-09-06T03:05:16.110Z,100993.09
2017-09-06T03:07:44.527Z,100998.52
2017-09-06T03:10:13.042Z,100998.64
2017-09-06T03:12:41.542Z,100990.22
2017-09-06T03:15:10.101Z,100995.15
2017-09-06T03:17:38.574Z,100985.61
2017-09-06T03:20:07.132Z,100984.03
2017-09-06T03:22:35.652Z,100987.77
2017-09-06T03:25:04.137Z,100978.90
2017-09-06T03:27:32.581Z,100972.74
2017-09-06T03:30:01.041Z,100972.87
2017-09-06T03:32:29.611Z,100971.38
2017-09-06T03:34:58.050Z,100971.20
2017-09-06T03:37:26.534Z,100965.48
2017-09-06T03:39:54.961Z,100968.91
2017-09-06T03:42:23.380Z,100965.37
2017-09-06T03:44:51.783Z,100969.52
2017-09-06T03:47:20.213Z,100978.76
2017-09-06T03:49:48.675Z,100982.19
2017-09-06T03:52:17.115Z,100991.09
2017-09-06T03:54:45.500Z,100989.25
2017-09-06T03:57:13.958Z,100986.89
2017-09-06T03:59:42.416Z,100980.37
2017-09-06T04:02:10.814Z,100985.25
2017-09-06T04:04:39.334Z,100982.49
2017-09-06T04:07:07.740Z,100982.44
2017-09-06T04:09:36.134Z,100985.60
2017-09-06T04:12:04.583Z,100972.97
2017-09-06T04:14:33.043Z,100979.50
2017-09-06T04:17:01.513Z,100977.69
2017-09-06T04:19:30.021Z,100973.20
2017-09-06T04:21:58.402Z,100971.19
2017-09-06T04:24:26.797Z,100970.01
2017-09-06T04:26:55.238Z,100969.69
2017-09-06T04:29:23.758Z,100967.59
2017-09-06T04:31:52.188Z,100967.68
2017-09-06T04:34:20.599Z,100969.23
2017-09-06T04:36:49.958Z,100974.09
2017-09-06T04:39:18.420Z,100970.50
2017-09-06T04:41:46.926Z,100972.77
2017-09-06T04:44:15.574Z,100982.29
2017-09-06T04:46:44.799Z,100969.52
2017-09-06T04:49:13.202Z,100976.16
2017-09-06T04:51:41.658Z,100981.85
2017-09-06T04:54:10.168Z,100976.81
2017-09-06T04:56:38.637Z,100983.23
2017-09-06T04:59:07.046Z,100974.78
2017-09-06T05:01:35.493Z,100982.03
2017-09-06T05:04:03.904Z,100985.06
2017-09-06T05:06:32.835Z,100983.03
2017-09-06T05:09:01.940Z,100990.38
2017-09-06T05:11:30.334Z,100987.08
2017-09-06T05:13:58.790Z,100991.81
2017-09-06T05:16:29.278Z,100996.73
2017-09-06T05:18:57.724Z,100997.81
2017-09-06T05:21:26.187Z,100995.58
2017-09-06T05:23:54.633Z,100998.52
2017-09-06T05:26:23.042Z,100998.61
2017-09-06T05:28:51.459Z,100998.00
2017-09-06T05:31:19.916Z,101004.22
2017-09-06T05:33:49.302Z,101003.41
2017-09-06T05:36:17.705Z,101005.97
2017-09-06T05:38:46.214Z,101003.86
2017-09-06T05:41:15.790Z,101000.80
2017-09-06T05:43:45.068Z,101003.67
2017-09-06T05:46:14.685Z,101000.05
2017-09-06T05:48:44.192Z,101009.83
2017-09-06T05:51:13.030Z,101009.45
2017-09-06T05:53:41.466Z,101011.96
2017-09-06T05:56:09.895Z,101007.61
2017-09-06T05:58:38.323Z,101015.90
2017-09-06T06:01:06.857Z,101021.02
2017-09-06T06:03:35.306Z,101022.09
2017-09-06T06:06:03.710Z,101031.41
2017-09-06T06:08:32.252Z,101032.55
2017-09-06T06:11:00.680Z,101040.05
2017-09-06T06:13:29.154Z,101035.81
2017-09-06T06:15:57.619Z,101052.42
2017-09-06T06:18:26.059Z,101051.81
2017-09-06T06:20:54.496Z,101043.90
2017-09-06T06:23:22.928Z,101054.57
2017-09-06T06:25:51.457Z,101052.48
2017-09-06T06:28:19.857Z,101061.57
2017-09-06T06:30:48.263Z,101062.28
2017-09-06T06:33:16.695Z,101067.98
2017-09-06T06:35:45.147Z,101070.95
2017-09-06T06:38:13.687Z,101076.20
2017-09-06T06:40:42.160Z,101082.54
2017-09-06T06:43:10.544Z,101092.17
2017-09-06T06:45:38.960Z,101089.90
2017-09-06T06:48:07.396Z,101099.48
2017-09-06T06:50:35.819Z,101098.36
2017-09-06T06:53:04.252Z,101110.52
2017-09-06T06:55:32.657Z,101108.92
2017-09-06T06:58:01.039Z,101121.40
2017-09-06T07:00:29.545Z,101122.33
2017-09-06T07:02:58.019Z,101136.64
2017-09-06T07:05:26.488Z,101134.69
2017-09-06T07:07:54.919Z,101146.44
2017-09-06T07:10:23.360Z,101148.77
2017-09-06T07:12:51.785Z,101148.91
2017-09-06T07:15:20.220Z,101156.73
2017-09-06T07:17:48.699Z,101149.64
2017-09-06T07:20:17.136Z,101157.09
2017-09-06T07:22:45.550Z,101165.03
2017-09-06T07:25:22.260Z,101160.43
2017-09-06T07:27:50.766Z,101175.50
2017-09-06T07:30:19.240Z,101183.83
2017-09-06T07:32:47.745Z,101188.58
2017-09-06T07:35:16.150Z,101196.03
2017-09-06T07:37:44.576Z,101199.55
2017-09-06T07:40:13.032Z,101213.70
2017-09-06T07:42:41.509Z,101210.67
2017-09-06T07:45:09.974Z,101208.91
2017-09-06T07:47:38.396Z,101200.15
2017-09-06T07:50:06.813Z,101220.86
2017-09-06T07:52:35.306Z,101222.84
2017-09-06T07:55:03.726Z,101233.27
2017-09-06T07:57:32.170Z,101238.55
2017-09-06T08:00:00.598Z,101234.69
2017-09-06T08:02:29.000Z,101243.27
2017-09-06T08:04:57.472Z,101255.25
2017-09-06T08:07:25.948Z,101256.20
2017-09-06T08:09:54.397Z,101261.88
2017-09-06T08:12:22.930Z,101270.07
2017-09-06T08:14:51.332Z,101268.36
2017-09-06T08:17:19.735Z,101269.47
2017-09-06T08:19:48.230Z,101274.86
2017-09-06T08:22:16.635Z,101284.77
2017-09-06T08:24:45.036Z,101285.69
2017-09-06T08:27:13.460Z,101280.50
2017-09-06T08:29:41.870Z,101287.38
2017-09-06T08:32:10.403Z,101287.62
2017-09-06T08:34:38.854Z,101292.03
2017-09-06T08:37:07.257Z,101297.78
2017-09-06T08:39:36.897Z,101296.52
2017-09-06T08:42:05.305Z,101295.92
2017-09-06T08:44:33.770Z,101295.13
2017-09-06T08:47:02.218Z,101298.52
2017-09-06T08:49:30.624Z,101299.40
2017-09-06T08:51:59.092Z,101303.04
2017-09-06T08:54:27.528Z,101309.65
2017-09-06T08:56:55.981Z,101310.60
2017-09-06T08:59:24.484Z,101317.25
2017-09-06T09:01:52.959Z,101312.07
2017-09-06T09:04:21.377Z,101319.95
2017-09-06T09:06:49.810Z,101326.72
2017-09-06T09:09:18.237Z,101329.65
2017-09-06T09:11:46.655Z,101327.76
2017-09-06T09:14:15.053Z,101320.95
2017-09-06T09:16:43.473Z,101314.84
2017-09-06T09:19:11.882Z,101322.78
2017-09-06T09:21:40.304Z,101324.68
2017-09-06T09:24:09.055Z,101335.06
2017-09-06T09:26:37.569Z,101323.91
2017-09-06T09:29:06.037Z,101321.20
2017-09-06T09:31:34.437Z,101325.68
2017-09-06T09:34:02.827Z,101317.06
2017-09-06T09:36:31.253Z,101323.53
2017-09-06T09:38:59.762Z,101320.06
2017-09-06T09:41:28.185Z,101323.44
2017-09-06T09:43:56.598Z,101322.93
2017-09-06T09:46:25.065Z,101322.64
2017-09-06T09:48:53.611Z,101326.25
2017-09-06T09:51:22.020Z,101334.22
2017-09-06T09:53:50.441Z,101329.95
2017-09-06T09:56:18.865Z,101331.09
2017-09-06T09:58:47.270Z,101331.59
2017-09-06T10:01:15.701Z,101334.19
2017-09-06T10:03:44.163Z,101336.79
2017-09-06T10:06:12.580Z,101327.10
2017-09-06T10:08:41.020Z,101338.83
2017-09-06T10:11:09.471Z,101330.41
2017-09-06T10:13:37.888Z,101330.48
2017-09-06T10:16:06.399Z,101337.22
2017-09-06T10:18:34.884Z,101340.80
2017-09-06T10:21:03.364Z,101347.11
2017-09-06T10:23:31.765Z,101345.18
2017-09-06T10:26:00.276Z,101348.36
2017-09-06T10:28:28.762Z,101343.67
2017-09-06T10:30:57.177Z,101354.10
2017-09-06T10:33:25.618Z,101348.34
2017-09-06T10:35:54.108Z,101344.52
2017-09-06T10:38:22.539Z,101345.63
2017-09-06T10:40:50.960Z,101342.79
2017-09-06T10:43:19.550Z,101354.80
2017-09-06T10:45:48.071Z,101351.08
2017-09-06T10:48:16.502Z,101350.33
2017-09-06T10:50:44.908Z,101341.57
2017-09-06T10:53:13.317Z,101341.34
2017-09-06T10:55:41.779Z,101334.63
2017-09-06T10:58:10.434Z,101322.95
2017-09-06T11:00:38.859Z,101330.66
2017-09-06T11:03:07.444Z,101346.20
2017-09-06T11:05:35.853Z,101325.77
2017-09-06T11:08:04.293Z,101341.52
2017-09-06T11:10:32.767Z,101337.92
2017-09-06T11:13:01.200Z,101339.39
2017-09-06T11:15:29.812Z,101342.79
2017-09-06T11:17:58.289Z,101336.16
2017-09-06T11:20:26.717Z,101328.95
2017-09-06T11:22:55.102Z,101341.16
2017-09-06T11:25:23.628Z,101350.78
2017-09-06T11:27:52.056Z,101338.09
2017-09-06T11:30:20.514Z,101333.66
2017-09-06T11:32:48.975Z,101339.71
2017-09-06T11:35:17.415Z,101330.63
2017-09-06T11:37:45.885Z,101331.47
2017-09-06T11:40:14.349Z,101327.14
2017-09-06T11:42:42.981Z,101323.22
2017-09-06T11:45:11.473Z,101330.34
2017-09-06T11:47:39.919Z,101331.24
2017-09-06T11:50:08.313Z,101340.35
2017-09-06T11:52:36.894Z,101336.25
2017-09-06T11:55:05.284Z,101343.38
2017-09-06T11:57:33.754Z,101349.33
2017-09-06T12:00:02.255Z,101344.53
2017-09-06T12:02:30.671Z,101354.72
2017-09-06T12:04:59.071Z,101358.31
2017-09-06T12:07:27.526Z,101351.41
2017-09-06T12:09:55.979Z,101358.81
2017-09-06T12:12:24.470Z,101359.11
2017-09-06T12:14:52.869Z,101361.06
2017-09-06T12:17:21.313Z,101356.20
2017-09-06T12:19:50.182Z,101356.17
2017-09-06T12:22:18.592Z,101358.39
2017-09-06T12:24:47.151Z,101352.20
2017-09-06T12:27:15.548Z,101350.04
2017-09-06T12:29:43.956Z,101350.02
2017-09-06T12:32:12.400Z,101343.42
2017-09-06T12:34:40.847Z,101347.57
2017-09-06T12:37:09.407Z,101357.10
2017-09-06T12:39:37.849Z,101357.01
2017-09-06T12:42:06.252Z,101349.25
2017-09-06T12:44:34.789Z,101347.95
2017-09-06T12:47:03.329Z,101351.09
2017-09-06T12:49:31.844Z,101345.45
2017-09-06T12:52:00.312Z,101339.16
2017-09-06T12:54:28.713Z,101346.65
2017-09-06T12:56:57.140Z,101349.31
2017-09-06T12:59:25.627Z,101343.67
2017-09-06T13:01:54.059Z,101349.44
2017-09-06T13:04:22.472Z,101346.44
2017-09-06T13:06:50.976Z,101360.92
2017-09-06T13:09:19.479Z,101357.38
2017-09-06T13:11:47.938Z,101358.89
2017-09-06T13:14:16.447Z,101362.98
2017-09-06T13:16:44.898Z,101362.13
2017-09-06T13:19:13.310Z,101374.23
2017-09-06T13:21:41.736Z,101364.73
2017-09-06T13:24:10.179Z,101378.16
2017-09-06T13:26:38.656Z,101374.85
2017-09-06T13:29:07.093Z,101383.58
2017-09-06T13:31:35.482Z,101376.41
2017-09-06T13:34:05.021Z,101372.69
2017-09-06T13:36:33.533Z,101373.36
2017-09-06T13:39:02.004Z,101369.00
2017-09-06T13:41:30.454Z,101367.80
2017-09-06T13:43:59.002Z,101371.02
2017-09-06T13:46:27.407Z,101367.65
2017-09-06T13:48:55.793Z,101376.79
2017-09-06T13:51:24.292Z,101371.17
2017-09-06T13:53:52.757Z,101373.11
2017-09-06T13:56:21.175Z,101363.31
2017-09-06T13:58:49.567Z,101365.80
2017-09-06T14:01:18.017Z,101367.22
2017-09-06T14:03:46.504Z,101364.14
2017-09-06T14:06:14.993Z,101358.10
2017-09-06T14:08:43.509Z,101359.34
2017-09-06T14:11:11.920Z,101362.68
2017-09-06T14:13:40.333Z,101363.20
2017-09-06T14:16:08.845Z,101368.30
2017-09-06T14:18:37.273Z,101362.83
2017-09-06T14:21:05.717Z,101370.77
2017-09-06T14:23:34.164Z,101366.67
2017-09-06T14:26:02.792Z,101371.83
2017-09-06T14:28:31.360Z,101375.68
2017-09-06T14:31:00.699Z,101368.97
2017-09-06T14:33:29.194Z,101370.95
2017-09-06T14:35:57.652Z,101367.55
2017-09-06T14:38:27.516Z,101359.22
2017-09-06T14:40:55.951Z,101364.95
2017-09-06T14:43:24.846Z,101369.79
2017-09-06T14:45:53.760Z,101373.57
2017-09-06T14:48:22.215Z,101367.62
2017-09-06T14:50:53.596Z,101369.30
2017-09-06T14:53:22.168Z,101367.06
2017-09-06T14:55:50.851Z,101366.50
2017-09-06T14:58:19.308Z,101368.53
2017-09-06T15:00:47.693Z,101362.90
2017-09-06T15:03:16.117Z,101366.92
2017-09-06T15:05:44.612Z,101368.94
2017-09-06T15:08:13.072Z,101363.20
2017-09-06T15:10:41.556Z,101365.77
2017-09-06T15:13:09.996Z,101366.70
2017-09-06T15:15:38.433Z,101358.39
2017-09-06T15:18:06.910Z,101368.38
2017-09-06T15:23:09.924Z,101366.81
2017-09-06T15:25:38.358Z,101358.31
2017-09-06T15:28:06.769Z,101371.25
2017-09-06T15:30:35.205Z,101382.78
2017-09-06T15:33:03.651Z,101378.28
2017-09-06T15:35:32.091Z,101377.88
2017-09-06T15:38:00.501Z,101386.30
2017-09-06T15:40:29.266Z,101382.64
2017-09-06T15:42:57.716Z,101382.64
2017-09-06T15:45:26.348Z,101391.64
2017-09-06T15:47:54.961Z,101390.42
2017-09-06T15:50:23.383Z,101386.78
2017-09-06T15:52:51.779Z,101389.44
2017-09-06T15:55:20.221Z,101385.02
2017-09-06T15:57:48.727Z,101387.67
2017-09-06T16:00:17.214Z,101387.73
2017-09-06T16:02:45.601Z,101391.10
2017-09-06T16:05:14.149Z,101388.83
2017-09-06T16:07:42.564Z,101383.42
2017-09-06T16:10:11.037Z,101386.86
2017-09-06T16:12:39.497Z,101383.40
2017-09-06T16:15:07.905Z,101376.31
2017-09-06T16:17:36.331Z,101374.86
2017-09-06T16:20:04.747Z,101380.24
2017-09-06T16:22:33.166Z,101390.31
2017-09-06T16:25:01.630Z,101390.23
2017-09-06T16:27:30.099Z,101387.55
2017-09-06T16:29:58.505Z,101383.45
2017-09-06T16:32:27.003Z,101388.53
2017-09-06T16:34:55.468Z,101394.75
2017-09-06T16:37:23.961Z,101396.08
2017-09-06T16:39:52.409Z,101398.06
2017-09-06T16:42:20.872Z,101394.23
2017-09-06T16:44:49.288Z,101394.44
2017-09-06T16:47:17.719Z,101400.07
2017-09-06T16:49:46.235Z,101391.02
2017-09-06T16:52:14.724Z,101398.13
2017-09-06T16:54:43.128Z,101391.48
2017-09-06T16:57:11.532Z,101397.72
2017-09-06T16:59:40.023Z,101396.44
2017-09-06T17:02:08.635Z,101400.13
2017-09-06T17:04:37.056Z,101402.38
2017-09-06T17:07:05.551Z,101408.16
2017-09-06T17:09:46.730Z,101401.03
2017-09-06T17:12:15.171Z,101399.96
2017-09-06T17:14:43.751Z,101399.52
2017-09-06T17:17:12.168Z,101399.05
2017-09-06T17:19:40.606Z,101406.44
2017-09-06T17:22:09.026Z,101408.55
2017-09-06T17:24:38.442Z,101407.57
2017-09-06T17:27:06.894Z,101410.28
2017-09-06T17:29:35.312Z,101409.09
2017-09-06T17:32:03.774Z,101418.08
2017-09-06T17:34:33.299Z,101412.78
2017-09-06T17:37:01.842Z,101414.20
2017-09-06T17:39:30.377Z,101417.48
2017-09-06T17:41:58.845Z,101414.55
2017-09-06T17:44:27.811Z,101426.14
2017-09-06T17:46:57.169Z,101414.98
2017-09-06T17:49:25.559Z,101415.86
2017-09-06T17:51:54.328Z,101425.23
2017-09-06T17:54:22.870Z,101420.91
2017-09-06T17:56:51.395Z,101431.05
2017-09-06T17:59:21.342Z,101433.23
2017-09-06T18:01:50.160Z,101425.81
2017-09-06T18:04:18.598Z,101432.56
2017-09-06T18:06:47.020Z,101439.87
2017-09-06T18:09:15.478Z,101441.75
2017-09-06T18:11:43.912Z,101439.40
2017-09-06T18:14:12.416Z,101435.14
2017-09-06T18:16:40.883Z,101440.73
2017-09-06T18:19:09.295Z,101447.45
2017-09-06T18:21:37.728Z,101455.36
2017-09-06T18:24:06.135Z,101454.69
2017-09-06T18:26:34.613Z,101448.91
2017-09-06T18:29:03.026Z,101454.53
2017-09-06T18:31:31.450Z,101456.61
2017-09-06T18:33:59.851Z,101457.13
2017-09-06T18:36:28.326Z,101463.36
2017-09-06T18:38:56.822Z,101461.58
2017-09-06T18:41:25.227Z,101465.50
2017-09-06T18:43:53.643Z,101465.95
2017-09-06T18:46:22.108Z,101466.69
2017-09-06T18:48:50.581Z,101465.01
2017-09-06T18:51:19.093Z,101470.47
2017-09-06T18:53:47.567Z,101470.79
2017-09-06T18:56:15.960Z,101471.98
2017-09-06T18:58:44.416Z,101474.81
2017-09-06T19:01:12.843Z,101472.32
2017-09-06T19:03:41.420Z,101476.38
2017-09-06T19:06:09.883Z,101481.96
2017-09-06T19:08:38.304Z,101485.63
2017-09-06T19:11:06.735Z,101493.04
2017-09-06T19:13:35.169Z,101495.31
2017-09-06T19:16:03.582Z,101493.88
2017-09-06T19:18:32.116Z,101499.73
2017-09-06T19:21:00.532Z,101506.27
2017-09-06T19:23:28.996Z,101512.80
2017-09-06T19:25:57.462Z,101521.95
2017-09-06T19:28:25.914Z,101513.86
2017-09-06T19:30:54.334Z,101522.25
2017-09-06T19:33:22.769Z,101513.58
2017-09-06T19:35:51.182Z,101515.55
2017-09-06T19:38:19.608Z,101524.22
2017-09-06T19:40:48.168Z,101521.44
2017-09-06T19:43:16.652Z,101517.09
2017-09-06T19:45:45.310Z,101517.21
2017-09-06T19:48:13.736Z,101520.44
2017-09-06T19:50:42.151Z,101511.92
2017-09-06T19:53:10.695Z,101506.80
2017-09-06T19:55:39.902Z,101505.02
2017-09-06T19:58:08.381Z,101504.14
2017-09-06T20:00:36.784Z,101505.17
2017-09-06T20:03:05.188Z,101504.17
2017-09-06T20:05:34.412Z,101505.07
2017-09-06T20:08:03.023Z,101496.48
2017-09-06T20:10:31.538Z,101500.19
2017-09-06T20:12:59.970Z,101498.06
2017-09-06T20:15:28.396Z,101497.67
2017-09-06T20:17:57.633Z,101495.30
2017-09-06T20:20:26.051Z,101492.07
2017-09-06T20:22:54.436Z,101488.51
2017-09-06T20:25:22.902Z,101482.62
2017-09-06T20:27:51.350Z,101481.31
2017-09-06T20:30:19.834Z,101480.55
2017-09-06T20:32:48.236Z,101482.05
2017-09-06T20:35:16.745Z,101481.51
2017-09-06T20:37:45.259Z,101481.59
2017-09-06T20:40:13.771Z,101475.05
2017-09-06T20:42:43.022Z,101480.38
2017-09-06T20:45:11.433Z,101482.09
2017-09-06T20:47:39.867Z,101482.06
2017-09-06T20:50:08.355Z,101475.55
2017-09-06T20:52:36.820Z,101480.70
2017-09-06T20:55:05.224Z,101477.50
2017-09-06T20:57:33.655Z,101475.34
2017-09-06T21:00:02.119Z,101475.34
2017-09-06T21:02:30.650Z,101471.56
2017-09-06T21:04:59.115Z,101469.34
2017-09-06T21:07:27.591Z,101467.97
2017-09-06T21:09:56.795Z,101472.38
2017-09-06T21:12:25.990Z,101471.37
2017-09-06T21:14:54.401Z,101464.97
2017-09-06T21:17:22.798Z,101467.00
2017-09-06T21:19:51.880Z,101465.12
2017-09-06T21:22:20.274Z,101467.34
2017-09-06T21:24:48.673Z,101460.86
2017-09-06T21:27:17.113Z,101459.23
2017-09-06T21:29:45.690Z,101463.78
2017-09-06T21:32:14.169Z,101463.49
2017-09-06T21:34:42.627Z,101464.42
2017-09-06T21:37:11.079Z,101468.02
2017-09-06T21:39:39.482Z,101466.37
2017-09-06T21:42:07.935Z,101466.81
2017-09-06T21:44:36.335Z,101466.81
2017-09-06T21:47:04.768Z,101466.70
2017-09-06T21:49:33.331Z,101456.37
2017-09-06T21:52:01.866Z,101459.81
2017-09-06T21:54:30.375Z,101449.91
2017-09-06T21:56:58.858Z,101454.17
2017-09-06T21:59:27.340Z,101449.03
2017-09-06T22:01:55.820Z,101452.24
2017-09-06T22:04:24.220Z,101444.16
2017-09-06T22:06:52.611Z,101447.78
2017-09-06T22:09:21.117Z,101450.37
2017-09-06T22:11:49.555Z,101451.88
2017-09-06T22:14:17.982Z,101447.41
2017-09-06T22:16:46.388Z,101451.56
2017-09-06T22:19:14.862Z,101453.51
2017-09-06T22:21:43.338Z,101456.50
2017-09-06T22:24:11.800Z,101460.52
2017-09-06T22:26:40.358Z,101458.44
2017-09-06T22:29:08.769Z,101457.34
2017-09-06T22:32:11.973Z,101457.66
2017-09-06T22:34:41.210Z,101457.53
2017-09-06T22:37:09.647Z,101459.19
2017-09-06T22:39:38.119Z,101457.91
2017-09-06T22:42:06.538Z,101457.53
2017-09-06T22:44:35.107Z,101459.16
2017-09-06T22:47:04.305Z,101462.06
2017-09-06T22:49:32.800Z,101460.13
2017-09-06T22:52:01.215Z,101462.97
2017-09-06T22:54:29.617Z,101461.31
2017-09-06T22:56:58.095Z,101457.31
2017-09-06T22:59:26.577Z,101463.91
2017-09-06T23:01:55.042Z,101455.25
2017-09-06T23:04:24.252Z,101455.94
2017-09-06T23:06:52.638Z,101455.00
2017-09-06T23:09:21.798Z,101455.44
2017-09-06T23:11:50.405Z,101465.16
2017-09-06T23:14:18.814Z,101464.97
2017-09-06T23:16:47.285Z,101467.72
2017-09-06T23:19:15.692Z,101463.44
2017-09-06T23:21:44.847Z,101467.25
2017-09-06T23:24:13.290Z,101465.59
2017-09-06T23:26:41.751Z,101470.94
2017-09-06T23:29:10.962Z,101466.71
2017-09-06T23:31:39.371Z,101466.45
2017-09-06T23:34:07.816Z,101468.47
2017-09-06T23:36:36.261Z,101465.41
2017-09-06T23:39:04.818Z,101461.26
2017-09-06T23:41:33.285Z,101457.59
2017-09-06T23:44:01.769Z,101456.26
2017-09-06T23:46:30.203Z,101455.06
2017-09-06T23:48:59.366Z,101437.19
2017-09-06T23:51:27.759Z,101433.35
2017-09-06T23:53:56.228Z,101432.00
2017-09-06T23:56:24.662Z,101426.20
2017-09-06T23:58:53.130Z,101427.76
